createdAt,value
2022-10-06T00:01:31.843Z,99473.00
2022-10-06T00:04:02.795Z,99472.00
2022-10-06T00:06:34.089Z,99484.00
2022-10-06T00:09:04.973Z,99496.00
2022-10-06T00:11:35.884Z,99478.00
2022-10-06T00:14:06.753Z,99491.00
2022-10-06T00:16:37.669Z,99478.00
2022-10-06T00:19:08.578Z,99482.00
2022-10-06T00:21:39.530Z,99493.00
2022-10-06T00:24:10.446Z,99495.00
2022-10-06T00:26:41.351Z,99493.00
2022-10-06T00:29:13.370Z,99493.00
2022-10-06T00:31:44.339Z,99499.00
2022-10-06T00:34:15.323Z,99493.00
2022-10-06T00:36:46.255Z,99505.00
2022-10-06T00:39:17.187Z,99506.00
2022-10-06T00:41:48.089Z,99508.00
2022-10-06T00:44:18.952Z,99515.00
2022-10-06T00:46:53.623Z,99512.00
2022-10-06T00:49:35.712Z,99519.00
2022-10-06T00:52:14.743Z,99522.00
2022-10-06T00:54:45.626Z,99521.00
2022-10-06T00:57:17.552Z,99524.00
2022-10-06T00:59:49.046Z,99530.00
2022-10-06T01:02:37.743Z,99529.00
2022-10-06T01:05:13.733Z,99522.00
2022-10-06T01:07:44.774Z,99533.00
2022-10-06T01:10:15.798Z,99529.00
2022-10-06T01:12:46.809Z,99529.00
2022-10-06T01:15:18.035Z,99533.00
2022-10-06T01:17:57.575Z,99535.00
2022-10-06T01:20:30.059Z,99542.00
2022-10-06T01:23:08.210Z,99539.00
2022-10-06T01:25:39.571Z,99548.00
2022-10-06T01:28:12.081Z,99540.00
2022-10-06T01:30:53.065Z,99550.00
2022-10-06T01:33:24.568Z,99547.00
2022-10-06T01:35:55.855Z,99553.00
2022-10-06T01:38:27.342Z,99549.00
2022-10-06T01:40:58.670Z,99551.00
2022-10-06T01:43:29.545Z,99566.00
2022-10-06T01:46:00.670Z,99563.00
2022-10-06T01:48:32.101Z,99570.00
2022-10-06T01:51:03.686Z,99560.00
2022-10-06T01:53:34.689Z,99567.00
2022-10-06T01:56:05.937Z,99584.00
2022-10-06T01:58:36.902Z,99578.00
2022-10-06T02:01:09.418Z,99574.00
2022-10-06T02:03:41.214Z,99579.00
2022-10-06T02:06:12.176Z,99577.00
2022-10-06T02:08:43.276Z,99576.00
2022-10-06T02:11:14.607Z,99573.00
2022-10-06T02:13:45.785Z,99575.00
2022-10-06T02:16:16.796Z,99574.00
2022-10-06T02:18:47.771Z,99580.00
2022-10-06T02:21:22.207Z,99584.00
2022-10-06T02:23:53.173Z,99596.00
2022-10-06T02:26:24.703Z,99587.00
2022-10-06T02:28:55.565Z,99603.00
2022-10-06T02:31:26.654Z,99598.00
2022-10-06T02:33:58.889Z,99603.00
2022-10-06T02:36:29.868Z,99600.00
2022-10-06T02:39:00.735Z,99615.00
2022-10-06T02:41:32.750Z,99619.00
2022-10-06T02:44:03.671Z,99626.00
2022-10-06T02:46:34.637Z,99630.00
2022-10-06T02:49:05.535Z,99636.00
2022-10-06T02:51:36.421Z,99632.00
2022-10-06T02:54:07.266Z,99636.00
2022-10-06T02:56:38.451Z,99636.00
2022-10-06T02:59:09.363Z,99633.00
2022-10-06T03:01:40.350Z,99646.00
2022-10-06T03:04:12.105Z,99643.00
2022-10-06T03:06:43.603Z,99645.00
2022-10-06T03:09:14.492Z,99653.00
2022-10-06T03:11:45.737Z,99651.00
2022-10-06T03:14:21.308Z,99645.00
2022-10-06T03:16:54.759Z,99659.00
2022-10-06T03:19:25.765Z,99668.00
2022-10-06T03:21:56.729Z,99681.00
2022-10-06T03:24:27.630Z,99685.00
2022-10-06T03:26:58.586Z,99692.00
2022-10-06T03:29:31.025Z,99691.00
2022-10-06T03:32:02.063Z,99711.00
2022-10-06T03:34:32.941Z,99691.00
2022-10-06T03:37:03.928Z,99697.00
2022-10-06T03:39:34.860Z,99704.00
2022-10-06T03:42:05.804Z,99702.00
2022-10-06T03:44:36.949Z,99711.00
2022-10-06T03:47:07.983Z,99716.00
2022-10-06T03:49:39.054Z,99729.00
2022-10-06T03:52:09.958Z,99729.00
2022-10-06T03:54:40.970Z,99737.00
2022-10-06T03:57:12.069Z,99740.00
2022-10-06T03:59:42.962Z,99749.00
2022-10-06T04:02:13.924Z,99751.00
2022-10-06T04:04:44.878Z,99755.00
2022-10-06T04:07:15.791Z,99756.00
2022-10-06T04:09:46.829Z,99761.00
2022-10-06T04:12:17.707Z,99748.00
2022-10-06T04:14:48.553Z,99750.00
2022-10-06T04:17:19.484Z,99759.00
2022-10-06T04:19:50.314Z,99755.00
2022-10-06T04:22:21.240Z,99762.00
2022-10-06T04:24:52.176Z,99768.00
2022-10-06T04:27:28.880Z,99789.00
2022-10-06T04:29:59.797Z,99772.00
2022-10-06T04:32:30.735Z,99768.00
2022-10-06T04:35:01.637Z,99775.00
2022-10-06T04:37:32.604Z,99773.00
2022-10-06T04:40:04.633Z,99771.00
2022-10-06T04:42:36.815Z,99777.00
2022-10-06T04:45:08.316Z,99776.00
2022-10-06T04:47:40.174Z,99778.00
2022-10-06T04:50:11.151Z,99778.00
2022-10-06T04:52:42.040Z,99786.00
2022-10-06T04:55:12.945Z,99784.00
2022-10-06T04:57:43.910Z,99794.00
2022-10-06T05:00:25.305Z,99787.00
2022-10-06T05:02:56.391Z,99795.00
2022-10-06T05:05:27.532Z,99797.00
2022-10-06T05:07:58.409Z,99802.00
2022-10-06T05:10:29.299Z,99813.00
2022-10-06T05:13:00.321Z,99808.00
2022-10-06T05:15:31.395Z,99808.00
2022-10-06T05:18:02.505Z,99812.00
2022-10-06T05:20:33.495Z,99820.00
2022-10-06T05:23:07.231Z,99825.00
2022-10-06T05:25:38.148Z,99830.00
2022-10-06T05:28:09.059Z,99838.00
2022-10-06T05:30:39.946Z,99838.00
2022-10-06T05:33:12.255Z,99838.00
2022-10-06T05:35:55.323Z,99838.00
2022-10-06T05:38:27.866Z,99860.00
2022-10-06T05:41:15.577Z,99856.00
2022-10-06T05:43:46.887Z,99855.00
2022-10-06T05:46:23.777Z,99849.00
2022-10-06T05:48:57.728Z,99848.00
2022-10-06T05:51:31.846Z,99859.00
2022-10-06T05:54:03.633Z,99856.00
2022-10-06T05:56:37.818Z,99864.00
2022-10-06T05:59:08.718Z,99864.00
2022-10-06T06:01:43.838Z,99896.00
2022-10-06T06:04:14.869Z,99869.00
2022-10-06T06:06:48.752Z,99877.00
2022-10-06T06:09:21.788Z,99881.00
2022-10-06T06:11:54.955Z,99885.00
2022-10-06T06:14:44.571Z,99884.00
2022-10-06T06:17:15.549Z,99891.00
2022-10-06T06:19:46.480Z,99910.00
2022-10-06T06:22:17.371Z,99897.00
2022-10-06T06:24:48.336Z,99906.00
2022-10-06T06:27:20.308Z,99903.00
2022-10-06T06:29:51.541Z,99905.00
2022-10-06T06:32:22.571Z,99908.00
2022-10-06T06:34:53.830Z,99909.00
2022-10-06T06:37:24.705Z,99915.00
2022-10-06T06:39:55.582Z,99918.00
2022-10-06T06:42:26.519Z,99922.00
2022-10-06T06:44:57.396Z,99934.00
2022-10-06T06:47:28.288Z,99932.00
2022-10-06T06:50:00.265Z,99955.00
2022-10-06T06:52:31.639Z,99952.00
2022-10-06T06:55:02.506Z,99947.00
2022-10-06T06:57:33.417Z,99955.00
2022-10-06T07:00:08.035Z,99956.00
2022-10-06T07:02:39.001Z,99961.00
2022-10-06T07:05:11.515Z,99963.00
2022-10-06T07:07:42.461Z,99958.00
2022-10-06T07:10:13.568Z,99976.00
2022-10-06T07:12:46.032Z,99981.00
2022-10-06T07:15:35.198Z,99977.00
2022-10-06T07:18:25.004Z,99977.00
2022-10-06T07:21:14.577Z,99990.00
2022-10-06T07:24:06.926Z,99988.00
2022-10-06T07:26:37.807Z,99995.00
2022-10-06T07:29:09.236Z,100002.00
2022-10-06T07:31:43.033Z,99997.00
2022-10-06T07:34:13.960Z,99998.00
2022-10-06T07:36:49.122Z,100008.00
2022-10-06T07:39:23.013Z,100005.00
2022-10-06T07:41:53.941Z,99998.00
2022-10-06T07:44:24.839Z,100001.00
2022-10-06T07:46:55.735Z,100002.00
2022-10-06T07:49:27.364Z,100013.00
2022-10-06T07:51:58.408Z,100001.00
2022-10-06T07:54:29.532Z,100010.00
2022-10-06T07:57:00.472Z,100019.00
2022-10-06T07:59:31.426Z,100007.00
2022-10-06T08:02:02.350Z,100016.00
2022-10-06T08:04:33.301Z,100021.00
2022-10-06T08:07:04.498Z,100018.00
2022-10-06T08:09:35.437Z,100020.00
2022-10-06T08:12:26.315Z,100031.00
2022-10-06T08:14:57.418Z,100033.00
2022-10-06T08:17:29.746Z,100035.00
2022-10-06T08:20:00.678Z,100037.00
2022-10-06T08:22:31.656Z,100038.00
2022-10-06T08:25:08.345Z,100041.00
2022-10-06T08:27:44.256Z,100051.00
2022-10-06T08:30:15.765Z,100052.00
2022-10-06T08:32:47.757Z,100061.00
2022-10-06T08:35:18.635Z,100066.00
2022-10-06T08:37:50.254Z,100066.00
2022-10-06T08:40:21.209Z,100057.00
2022-10-06T08:42:56.155Z,100064.00
2022-10-06T08:45:38.591Z,100063.00
2022-10-06T08:48:26.940Z,100066.00
2022-10-06T08:51:36.366Z,100079.00
2022-10-06T08:54:24.596Z,100068.00
2022-10-06T08:57:20.976Z,100077.00
2022-10-06T08:59:55.241Z,100075.00
2022-10-06T09:02:32.574Z,100082.00
2022-10-06T09:05:06.763Z,100087.00
2022-10-06T09:08:26.470Z,100090.00
2022-10-06T09:11:15.551Z,100083.00
2022-10-06T09:14:04.234Z,100090.00
2022-10-06T09:16:41.622Z,100087.00
2022-10-06T09:19:27.839Z,100091.00
2022-10-06T09:22:04.794Z,100093.00
2022-10-06T09:24:47.507Z,100097.00
2022-10-06T09:27:33.464Z,100098.00
2022-10-06T09:30:06.316Z,100102.00
2022-10-06T09:32:40.468Z,100101.00
2022-10-06T09:35:23.933Z,100091.00
2022-10-06T09:38:08.356Z,100093.00
2022-10-06T09:40:49.804Z,100096.00
2022-10-06T09:43:28.934Z,100100.00
2022-10-06T09:46:21.707Z,100110.00
2022-10-06T09:49:20.137Z,100121.00
2022-10-06T09:52:01.595Z,100117.00
2022-10-06T09:54:34.816Z,100114.00
2022-10-06T09:57:19.994Z,100113.00
2022-10-06T09:59:52.831Z,100120.00
2022-10-06T10:02:37.122Z,100122.00
2022-10-06T10:05:20.969Z,100119.00
2022-10-06T10:08:06.275Z,100124.00
2022-10-06T10:10:37.809Z,100122.00
2022-10-06T10:13:26.667Z,100120.00
2022-10-06T10:16:02.167Z,100129.00
2022-10-06T10:18:33.812Z,100119.00
2022-10-06T10:21:08.378Z,100119.00
2022-10-06T10:23:55.397Z,100122.00
2022-10-06T10:26:42.337Z,100115.00
2022-10-06T10:29:51.204Z,100117.00
2022-10-06T10:33:04.733Z,100109.00
2022-10-06T10:35:46.483Z,100131.00
2022-10-06T10:38:23.415Z,100129.00
2022-10-06T10:41:04.807Z,100138.00
2022-10-06T10:44:13.117Z,100123.00
2022-10-06T10:47:14.736Z,100113.00
2022-10-06T10:50:14.639Z,100096.00
2022-10-06T10:52:50.027Z,100095.00
2022-10-06T10:55:42.110Z,100095.00
2022-10-06T10:58:42.939Z,100094.00
2022-10-06T11:01:52.489Z,100098.00
2022-10-06T11:04:23.480Z,100095.00
2022-10-06T11:07:23.508Z,100096.00
2022-10-06T11:10:13.763Z,100095.00
2022-10-06T11:13:43.345Z,100098.00
2022-10-06T11:16:31.558Z,100104.00
2022-10-06T11:19:41.899Z,100102.00
2022-10-06T11:22:29.231Z,100102.00
2022-10-06T11:25:29.123Z,100094.00
2022-10-06T11:28:12.031Z,100097.00
2022-10-06T11:31:04.477Z,100094.00
2022-10-06T11:33:52.898Z,100096.00
2022-10-06T11:36:49.490Z,100094.00
2022-10-06T11:39:41.427Z,100083.00
2022-10-06T11:42:37.745Z,100083.00
2022-10-06T11:45:15.426Z,100091.00
2022-10-06T11:48:07.882Z,100089.00
2022-10-06T11:50:44.576Z,100079.00
2022-10-06T11:53:39.815Z,100081.00
2022-10-06T11:56:19.717Z,100079.00
2022-10-06T11:58:56.599Z,100078.00
2022-10-06T12:01:36.477Z,100085.00
2022-10-06T12:04:10.184Z,100080.00
2022-10-06T12:06:46.444Z,100074.00
2022-10-06T12:09:28.255Z,100076.00
2022-10-06T12:12:19.022Z,100067.00
2022-10-06T12:18:14.167Z,100066.00
2022-10-06T12:21:34.436Z,100063.00
2022-10-06T12:24:21.880Z,100067.00
2022-10-06T12:27:01.483Z,100056.00
2022-10-06T12:29:46.122Z,100056.00
2022-10-06T12:32:48.770Z,100064.00
2022-10-06T12:35:24.684Z,100086.00
2022-10-06T12:38:06.197Z,100069.00
2022-10-06T12:40:49.317Z,100060.00
2022-10-06T12:43:23.207Z,100057.00
2022-10-06T12:45:57.138Z,100057.00
2022-10-06T12:48:35.544Z,100060.00
2022-10-06T12:51:35.021Z,100055.00
2022-10-06T12:54:23.572Z,100059.00
2022-10-06T12:57:01.941Z,100059.00
2022-10-06T12:59:35.338Z,100056.00
2022-10-06T13:02:14.631Z,100053.00
2022-10-06T13:04:52.627Z,100051.00
2022-10-06T13:07:29.442Z,100050.00
2022-10-06T13:10:15.309Z,100048.00
2022-10-06T13:12:47.722Z,100048.00
2022-10-06T13:15:29.610Z,100043.00
2022-10-06T13:18:21.570Z,100040.00
2022-10-06T13:20:56.805Z,100044.00
2022-10-06T13:23:37.659Z,100039.00
2022-10-06T13:26:22.677Z,100040.00
2022-10-06T13:29:02.732Z,100043.00
2022-10-06T13:31:36.559Z,100042.00
2022-10-06T13:34:13.105Z,100047.00
2022-10-06T13:36:50.528Z,100048.00
2022-10-06T13:39:24.677Z,100033.00
2022-10-06T13:42:17.666Z,100053.00
2022-10-06T13:45:00.074Z,100032.00
2022-10-06T13:47:31.181Z,100030.00
2022-10-06T13:50:18.792Z,100040.00
2022-10-06T13:52:50.765Z,100042.00
2022-10-06T13:55:28.392Z,100042.00
2022-10-06T13:58:03.370Z,100039.00
2022-10-06T14:00:56.217Z,100034.00
2022-10-06T14:03:38.267Z,100032.00
2022-10-06T14:06:20.731Z,100024.00
2022-10-06T14:08:58.006Z,100026.00
2022-10-06T14:11:29.836Z,100024.00
2022-10-06T14:14:06.337Z,100024.00
2022-10-06T14:16:37.263Z,100022.00
2022-10-06T14:19:40.734Z,100023.00
2022-10-06T14:22:38.226Z,100019.00
2022-10-06T14:25:15.160Z,100022.00
2022-10-06T14:27:46.042Z,100014.00
2022-10-06T14:30:17.034Z,100005.00
2022-10-06T14:32:47.922Z,100017.00
2022-10-06T14:35:18.870Z,100019.00
2022-10-06T14:37:49.722Z,100009.00
2022-10-06T14:40:21.171Z,100010.00
2022-10-06T14:42:52.027Z,100006.00
2022-10-06T14:45:22.937Z,100007.00
2022-10-06T14:47:53.851Z,100006.00
2022-10-06T14:50:24.702Z,100011.00
2022-10-06T14:52:55.588Z,100006.00
2022-10-06T14:55:31.030Z,100009.00
2022-10-06T14:58:03.491Z,100007.00
2022-10-06T15:00:34.451Z,100001.00
2022-10-06T15:03:05.537Z,99996.00
2022-10-06T15:05:56.414Z,100006.00
2022-10-06T15:08:27.764Z,99999.00
2022-10-06T15:10:58.617Z,100006.00
2022-10-06T15:13:32.055Z,100000.00
2022-10-06T15:16:02.968Z,100003.00
2022-10-06T15:18:34.003Z,100014.00
2022-10-06T15:21:05.239Z,99994.00
2022-10-06T15:23:37.423Z,100005.00
2022-10-06T15:26:48.169Z,99997.00
2022-10-06T15:29:19.301Z,99988.00
2022-10-06T15:31:52.854Z,99990.00
2022-10-06T15:34:27.676Z,99995.00
2022-10-06T15:36:59.437Z,99988.00
2022-10-06T15:39:32.103Z,99988.00
2022-10-06T15:42:03.435Z,100013.00
2022-10-06T15:44:35.096Z,99996.00
2022-10-06T15:47:07.845Z,99987.00
2022-10-06T15:49:41.604Z,99994.00
2022-10-06T15:52:13.574Z,99997.00
2022-10-06T15:54:46.457Z,99989.00
2022-10-06T15:57:21.002Z,99990.00
2022-10-06T15:59:52.679Z,99991.00
2022-10-06T16:02:23.650Z,99981.00
2022-10-06T16:05:17.254Z,99997.00
2022-10-06T16:07:48.181Z,99990.00
2022-10-06T16:10:19.082Z,99986.00
2022-10-06T16:12:49.986Z,99981.00
2022-10-06T16:15:20.843Z,99981.00
2022-10-06T16:17:51.696Z,99985.00
2022-10-06T16:20:22.527Z,99980.00
2022-10-06T16:22:54.505Z,99980.00
2022-10-06T16:25:25.409Z,99988.00
2022-10-06T16:27:56.386Z,99983.00
2022-10-06T16:30:27.292Z,99985.00
2022-10-06T16:32:58.155Z,99992.00
2022-10-06T16:35:28.993Z,100000.00
2022-10-06T16:37:59.960Z,99997.00
2022-10-06T16:40:30.897Z,99999.00
2022-10-06T16:43:01.749Z,99996.00
2022-10-06T16:45:32.690Z,100003.00
2022-10-06T16:48:03.591Z,100001.00
2022-10-06T16:50:34.444Z,100007.00
2022-10-06T16:53:05.361Z,100003.00
2022-10-06T16:55:36.994Z,100008.00
2022-10-06T16:58:09.786Z,100005.00
2022-10-06T17:00:40.714Z,100004.00
2022-10-06T17:03:11.590Z,100007.00
2022-10-06T17:05:42.446Z,100006.00
2022-10-06T17:08:13.317Z,100002.00
2022-10-06T17:10:44.196Z,100001.00
2022-10-06T17:13:15.027Z,100008.00
2022-10-06T17:15:45.988Z,100007.00
2022-10-06T17:18:16.903Z,100005.00
2022-10-06T17:21:00.915Z,100006.00
2022-10-06T17:23:32.927Z,100002.00
2022-10-06T17:26:16.726Z,100012.00
2022-10-06T17:28:52.685Z,100006.00
2022-10-06T17:31:29.493Z,100018.00
2022-10-06T17:34:00.426Z,100016.00
2022-10-06T17:36:31.965Z,100022.00
2022-10-06T17:39:04.524Z,100024.00
2022-10-06T17:41:40.167Z,100022.00
2022-10-06T17:44:18.842Z,100009.00
2022-10-06T17:46:52.532Z,100016.00
2022-10-06T17:49:24.866Z,100015.00
2022-10-06T17:51:56.014Z,100023.00
2022-10-06T17:54:28.336Z,100016.00
2022-10-06T17:56:59.860Z,100020.00
2022-10-06T17:59:31.911Z,100024.00
2022-10-06T18:02:03.768Z,100016.00
2022-10-06T18:04:35.927Z,100040.00
2022-10-06T18:07:08.549Z,100028.00
2022-10-06T18:10:00.448Z,100013.00
2022-10-06T18:12:36.133Z,100006.00
2022-10-06T18:15:09.394Z,100003.00
2022-10-06T18:17:41.526Z,100010.00
2022-10-06T18:20:12.415Z,100008.00
2022-10-06T18:22:43.803Z,100012.00
2022-10-06T18:25:16.831Z,100014.00
2022-10-06T18:27:47.937Z,100016.00
2022-10-06T18:30:18.918Z,100011.00
2022-10-06T18:38:32.306Z,100015.00
2022-10-06T18:41:05.623Z,100013.00
2022-10-06T18:43:37.059Z,100012.00
2022-10-06T18:46:30.842Z,100010.00
2022-10-06T18:49:12.430Z,100013.00
2022-10-06T18:51:45.930Z,100013.00
2022-10-06T18:54:27.021Z,99999.00
2022-10-06T18:56:58.428Z,100006.00
2022-10-06T18:59:32.016Z,100004.00
2022-10-06T19:02:03.059Z,100003.00
2022-10-06T19:04:35.896Z,100003.00
2022-10-06T19:07:06.776Z,100006.00
2022-10-06T19:09:38.991Z,100002.00
2022-10-06T19:12:11.515Z,100016.00
2022-10-06T19:14:47.423Z,100009.00
2022-10-06T19:17:18.709Z,100006.00
2022-10-06T19:19:51.376Z,100011.00
2022-10-06T19:22:24.772Z,100009.00
2022-10-06T19:24:55.829Z,100005.00
2022-10-06T19:27:28.955Z,99999.00
2022-10-06T19:30:00.089Z,100006.00
2022-10-06T19:32:34.468Z,100006.00
2022-10-06T19:35:10.110Z,100009.00
2022-10-06T19:37:41.955Z,100009.00
2022-10-06T19:40:13.035Z,100010.00
2022-10-06T19:42:48.816Z,100009.00
2022-10-06T19:45:21.054Z,100006.00
2022-10-06T19:47:52.145Z,100012.00
2022-10-06T19:50:23.584Z,100020.00
2022-10-06T19:52:55.463Z,100018.00
2022-10-06T19:55:28.588Z,100017.00
2022-10-06T19:58:00.144Z,100021.00
2022-10-06T20:00:31.664Z,100019.00
2022-10-06T20:03:02.685Z,100017.00
2022-10-06T20:05:38.321Z,100013.00
2022-10-06T20:08:12.416Z,100013.00
2022-10-06T20:10:44.063Z,100013.00
2022-10-06T20:13:15.175Z,100006.00
2022-10-06T20:15:46.003Z,100001.00
2022-10-06T20:18:16.883Z,99998.00
2022-10-06T20:20:58.171Z,100005.00
2022-10-06T20:23:29.353Z,100004.00
2022-10-06T20:26:23.764Z,100011.00
2022-10-06T20:28:54.822Z,100007.00
2022-10-06T20:31:30.245Z,100009.00
2022-10-06T20:34:05.778Z,100004.00
2022-10-06T20:36:38.206Z,100011.00
2022-10-06T20:39:35.462Z,100010.00
2022-10-06T20:42:13.656Z,99999.00
2022-10-06T20:44:46.389Z,99999.00
2022-10-06T20:47:17.346Z,100002.00
2022-10-06T20:49:54.221Z,100000.00
2022-10-06T20:52:25.137Z,100000.00
2022-10-06T20:54:56.094Z,99999.00
2022-10-06T20:57:33.491Z,100005.00
2022-10-06T21:00:05.328Z,100003.00
2022-10-06T21:02:36.365Z,99999.00
2022-10-06T21:05:09.122Z,100005.00
2022-10-06T21:07:40.300Z,100004.00
2022-10-06T21:10:11.447Z,100007.00
2022-10-06T21:12:43.461Z,100006.00
2022-10-06T21:15:15.120Z,99996.00
2022-10-06T21:17:48.100Z,99988.00
2022-10-06T21:20:19.149Z,99990.00
2022-10-06T21:22:50.619Z,99986.00
2022-10-06T21:25:21.837Z,100004.00
2022-10-06T21:27:53.114Z,99987.00
2022-10-06T21:30:24.580Z,99984.00
2022-10-06T21:32:55.730Z,99984.00
2022-10-06T21:35:27.192Z,99986.00
2022-10-06T21:37:58.386Z,99981.00
2022-10-06T21:40:29.478Z,99988.00
2022-10-06T21:43:00.685Z,99971.00
2022-10-06T21:45:33.147Z,99972.00
2022-10-06T21:48:04.546Z,99970.00
2022-10-06T21:50:35.743Z,99958.00
2022-10-06T21:53:07.010Z,99967.00
2022-10-06T21:55:38.026Z,99959.00
2022-10-06T21:58:09.035Z,99962.00
2022-10-06T22:00:40.044Z,99953.00
2022-10-06T22:03:11.165Z,99957.00
2022-10-06T22:05:42.300Z,99954.00
2022-10-06T22:08:13.498Z,99968.00
2022-10-06T22:10:45.380Z,99948.00
2022-10-06T22:13:16.365Z,99949.00
2022-10-06T22:15:47.365Z,99942.00
2022-10-06T22:18:18.398Z,99937.00
2022-10-06T22:20:49.391Z,99940.00
2022-10-06T22:23:20.389Z,99937.00
2022-10-06T22:25:58.205Z,99946.00
2022-10-06T22:28:30.069Z,99938.00
2022-10-06T22:31:10.579Z,99934.00
2022-10-06T22:33:42.934Z,99941.00
2022-10-06T22:36:14.376Z,99939.00
2022-10-06T22:38:45.481Z,99945.00
2022-10-06T22:41:16.976Z,99949.00
2022-10-06T22:43:48.235Z,99934.00
2022-10-06T22:46:19.356Z,99930.00
2022-10-06T22:48:50.942Z,99926.00
2022-10-06T22:51:22.214Z,99923.00
2022-10-06T22:53:59.303Z,99936.00
2022-10-06T22:56:33.464Z,99921.00
2022-10-06T22:59:04.592Z,99916.00
2022-10-06T23:01:35.574Z,99914.00
2022-10-06T23:04:06.578Z,99914.00
2022-10-06T23:09:22.598Z,99905.00
2022-10-06T23:11:53.617Z,99901.00
2022-10-06T23:14:24.621Z,99894.00
2022-10-06T23:16:55.642Z,99900.00
2022-10-06T23:19:26.621Z,99895.00
2022-10-06T23:21:57.609Z,99891.00
2022-10-06T23:24:28.614Z,99889.00
2022-10-06T23:27:04.344Z,99880.00
2022-10-06T23:29:35.350Z,99884.00
2022-10-06T23:32:06.337Z,99876.00
2022-10-06T23:34:37.328Z,99875.00
2022-10-06T23:37:08.405Z,99876.00
2022-10-06T23:39:39.365Z,99883.00
2022-10-06T23:42:10.557Z,99871.00
2022-10-06T23:44:41.524Z,99878.00
2022-10-06T23:47:12.575Z,99871.00
2022-10-06T23:49:43.752Z,99876.00
2022-10-06T23:52:14.735Z,99877.00
2022-10-06T23:54:45.690Z,99872.00
2022-10-06T23:57:16.734Z,99867.00
2022-10-06T23:59:47.690Z,99869.00
